Flight Track Log - Related Links

Times and Time Zones

All times are in EDT time to prevent confusion due to time zone crossing. See the UPS1366 flight status page for this flight to view local times or setup timezone preferences in your user account.

Time Position Orientation Groundspeed Altitude Reporting Facility
EDT Latitude Longitude Course Direction KTS MPH feet Rate Location/Type
Tue 06:20:51 AM 31.5208 -84.2061 145° Southeast 360 414 1,800  Level Jacksonville Center
Tue 06:21:51 AM 31.5078 -84.2619 255° West 161 185 3,600 3,000 Climbing Jacksonville Center
Tue 06:22:51 AM 31.4922 -84.3375 256° West 159 183 7,800 3,700 Climbing Jacksonville Center
Tue 06:23:51 AM 31.4725 -84.4222 255° West 225 259 11,000 2,750 Climbing Jacksonville Center
Tue 06:24:00 AM 31.3757 -84.6620 248° West  Level Estimated
Tue 06:24:51 AM 31.4461 -84.5289 254° West 299 344 13,300  Level Jacksonville Center
Tue 06:25:51 AM 31.4194 -84.6478 255° West 340 391 16,400 2,900 Climbing Jacksonville Center
Tue 06:26:51 AM 31.3928 -84.7714 256° West 375 432 19,100 2,650 Climbing Jacksonville Center
Tue 06:27:51 AM 31.3614 -84.9047 255° West 403 464 21,700 2,400 Climbing Jacksonville Center
Tue 06:28:51 AM 31.3319 -85.0403 256° West 421 484 23,900 1,150 Climbing Jacksonville Center
Tue 06:29:51 AM 31.2983 -85.1828 255° West 435 501 24,000  Climbing Jacksonville Center
Tue 06:30:51 AM 31.2642 -85.3231 254° West 449 517 23,900 -50 Descending Jacksonville Center
Tue 06:31:51 AM 31.2322 -85.4631 255° West 449 517 23,900 50 Level Jacksonville Center
Tue 06:32:51 AM 31.2003 -85.6031 255° West 449 517 24,000 50 Climbing Jacksonville Center
Tue 06:33:51 AM 31.1658 -85.7428 254° West 449 517 24,000 -900 Level Jacksonville Center
Tue 06:34:51 AM 31.1311 -85.8850 254° West 449 517 22,200 -2,550 Descending Jacksonville Center
Tue 06:35:51 AM 31.0986 -86.0197 254° West 444 511 18,900 -3,150 Descending Jacksonville Center
Tue 06:36:51 AM 31.0686 -86.1400 254° West 423 487 15,900 -2,950 Descending Jacksonville Center
Tue 06:37:51 AM 31.0428 -86.2508 255° West 409 471 13,000 -2,550 Descending Jacksonville Center
Tue 06:38:51 AM 31.0147 -86.3636 254° West 381 438 10,800 -1,098 Descending Jacksonville Center
Tue 06:44:41 AM 30.8615 -86.8441 226° Southwest 259 298 5,500 -957 Descending FlightAware ADS-B (KHRT)
Tue 06:45:26 AM 30.8194 -86.8958 226° Southwest 256 295 4,500 -1,114 Descending Jacksonville Center
Tue 06:45:51 AM 30.8106 -86.9100 234° Southwest 260 299 4,200 -984 Descending Jacksonville Center
Tue 06:46:27 AM 30.7739 -86.9544 226° Southwest 249 287 3,500 -800 Descending Jacksonville Center
Tue 06:46:51 AM 30.7631 -86.9658 222° Southwest 260 299 3,400 -800 Descending Jacksonville Center
Tue 06:47:27 AM 30.7239 -87.0125 226° Southwest 245 282 2,700 -900 Descending Jacksonville Center
Tue 06:47:51 AM 30.7172 -87.0244 237° Southwest 260 299 2,500 -787 Descending Jacksonville Center
Tue 06:48:28 AM 30.6803 -87.0711 227° Southwest 242 278 1,900 -700 Descending Jacksonville Center
Tue 06:48:51 AM 30.6694 -87.0825 222° Southwest 260 299 1,800 -200 Descending Jacksonville Center
Tue 06:49:28 AM 30.6344 -87.1269 228° Southwest 214 246 1,700 -100 Descending Jacksonville Center
Tue 06:49:51 AM 30.6258 -87.1339 215° Southwest 248 285 1,700  Level Jacksonville Center
Tue 06:50:29 AM 30.5956 -87.1686 225° Southwest 174 200 1,700 -61 Level Jacksonville Center
Tue 06:51:30 AM 30.5650 -87.2083 228° Southwest 161 185 1,600 -397 Descending Jacksonville Center
Tue 06:52:30 AM 30.5233 -87.2064 178° South 133 153 900 -645 Descending Jacksonville Center
Tue 06:53:31 AM 30.4883 -87.1953 165° South 130 150 300 -590 Descending Jacksonville Center
Tue 06:55:00 AM 30.4734 -87.1866 168° South  Level Estimated

Login

Don't have an account? Register now (free) for customized features, flight alerts, and more!